createdAt,value
2018-09-19T00:07:57.615Z,12.7
2018-09-19T00:17:57.855Z,12.7
2018-09-19T00:27:58.169Z,12.6
2018-09-19T00:37:58.682Z,12.6
2018-09-19T00:47:59.107Z,12.6
2018-09-19T01:08:02.430Z,12.7
2018-09-19T01:18:02.845Z,12.6
2018-09-19T01:28:02.775Z,12.6
2018-09-19T01:38:02.890Z,12.6
2018-09-19T01:48:03.214Z,12.6
2018-09-19T01:58:03.660Z,12.6
2018-09-19T02:08:04.235Z,12.6
2018-09-19T02:18:04.478Z,12.6
2018-09-19T02:28:05.374Z,12.6
2018-09-19T02:38:06.025Z,12.6
2018-09-19T02:48:06.493Z,12.6
2018-09-19T02:58:08.233Z,12.6
2018-09-19T03:08:08.711Z,12.6
2018-09-19T03:18:08.989Z,12.5
2018-09-19T03:28:09.440Z,12.5
2018-09-19T03:38:09.745Z,12.5
2018-09-19T03:58:13.089Z,12.5
2018-09-19T04:08:13.154Z,12.5
2018-09-19T04:18:13.420Z,12.4
2018-09-19T04:28:13.859Z,12.4
2018-09-19T04:48:17.190Z,12.3
2018-09-19T04:58:18.032Z,12.3
2018-09-19T05:28:24.163Z,12.4
2018-09-19T05:48:27.046Z,12.5
2018-09-19T06:18:34.669Z,12.9
2018-09-19T06:28:34.918Z,12.9
2018-09-19T06:38:35.389Z,13.1
2018-09-19T06:48:36.052Z,13.3
2018-09-19T06:58:36.656Z,13.4
2018-09-19T07:08:37.530Z,13.5
2018-09-19T07:18:38.166Z,13.6
2018-09-19T07:28:38.546Z,13.6
2018-09-19T07:38:39.087Z,13.6
2018-09-19T07:58:39.795Z,13.5
2018-09-19T08:08:40.298Z,13.4
2018-09-19T08:18:42.434Z,13.4
2018-09-19T08:28:46.662Z,13.6
2018-09-19T08:38:46.845Z,13.4
2018-09-19T08:48:47.033Z,13.4
2018-09-19T08:58:47.388Z,13.5
2018-09-19T09:18:48.313Z,13.6
2018-09-19T09:38:52.005Z,13.9
2018-09-19T09:48:52.362Z,14.2
2018-09-19T09:58:52.766Z,14.5
2018-09-19T10:08:53.233Z,14.7
2018-09-19T10:18:53.736Z,14.7
2018-09-19T10:28:54.236Z,14.8
2018-09-19T10:38:54.555Z,14.8
2018-09-19T10:48:55.145Z,14.9
2018-09-19T10:58:58.290Z,14.9
2018-09-19T11:18:59.287Z,14.8
2018-09-19T11:39:00.365Z,15.1
2018-09-19T11:49:03.306Z,14.8
2018-09-19T11:59:03.785Z,14.7
2018-09-19T12:09:04.190Z,14.8
2018-09-19T12:19:04.827Z,14.9
2018-09-19T12:29:05.692Z,14.8
2018-09-19T12:39:06.005Z,14.8
2018-09-19T12:49:06.355Z,14.9
2018-09-19T12:59:06.784Z,14.8
2018-09-19T13:09:07.162Z,14.8
2018-09-19T13:19:07.449Z,14.9
2018-09-19T13:39:10.981Z,14.6
2018-09-19T13:49:11.267Z,14.5
2018-09-19T14:09:14.120Z,14.4
2018-09-19T14:19:14.251Z,14.4
2018-09-19T14:29:14.865Z,14.5
2018-09-19T14:39:15.206Z,14.5
2018-09-19T14:49:16.644Z,14.6
2018-09-19T14:59:17.066Z,14.6
2018-09-19T15:09:17.111Z,14.5
2018-09-19T15:19:17.522Z,14.4
2018-09-19T15:29:17.845Z,14.3
2018-09-19T15:39:20.931Z,14.3
2018-09-19T15:49:21.324Z,14.4
2018-09-19T15:59:21.745Z,14.4
2018-09-19T16:09:21.928Z,14.4
2018-09-19T16:19:21.947Z,14.4
2018-09-19T16:39:22.347Z,14.2
2018-09-19T16:49:22.715Z,14.2
2018-09-19T16:59:24.741Z,14.3
2018-09-19T17:09:25.123Z,14.3
2018-09-19T17:19:25.777Z,14.4
2018-09-19T17:29:26.008Z,14.4
2018-09-19T17:39:26.934Z,14.5
2018-09-19T17:49:27.119Z,14.4
2018-09-19T17:59:27.430Z,14.4
2018-09-19T18:09:27.868Z,14.4
2018-09-19T18:19:28.183Z,14.4
2018-09-19T18:29:28.384Z,14.4
2018-09-19T18:39:28.751Z,14.3
2018-09-19T18:49:29.044Z,14.2
2018-09-19T18:59:30.120Z,14.1
2018-09-19T19:09:30.397Z,14
2018-09-19T19:19:30.542Z,14
2018-09-19T19:29:30.785Z,14
2018-09-19T19:39:31.393Z,13.9
2018-09-19T19:59:37.028Z,13.4
2018-09-19T20:19:40.437Z,13.1
2018-09-19T20:29:40.310Z,12.8
2018-09-19T20:39:40.514Z,12.8
2018-09-19T20:49:40.672Z,12.7
2018-09-19T20:59:40.723Z,12.7
2018-09-19T21:09:43.648Z,12.6
2018-09-19T21:19:43.969Z,12.6
2018-09-19T21:29:44.283Z,12.6
2018-09-19T21:39:44.610Z,12.5
2018-09-19T21:49:44.790Z,12.5
2018-09-19T21:59:45.024Z,12.5
2018-09-19T22:29:48.686Z,12.6
2018-09-19T22:49:51.558Z,12.6
2018-09-19T22:59:51.982Z,12.6
2018-09-19T23:09:52.366Z,12.6
2018-09-19T23:19:53.748Z,12.5
2018-09-19T23:29:54.229Z,12.5
2018-09-19T23:39:54.581Z,12.5
2018-09-19T23:49:54.831Z,12.5
2018-09-19T23:59:54.995Z,12.5
